createdAt,value
2022-10-18T00:02:02.994Z,60892.78
2022-10-18T00:04:29.484Z,60567.59
2022-10-18T00:06:55.842Z,60575.88
2022-10-18T00:09:22.252Z,60557.25
2022-10-18T00:11:48.754Z,60551.03
2022-10-18T00:14:15.253Z,60582.09
2022-10-18T00:16:41.647Z,60621.47
2022-10-18T00:19:08.154Z,60536.53
2022-10-18T00:21:34.647Z,60544.81
2022-10-18T00:24:01.080Z,60507.53
2022-10-18T00:26:30.592Z,60592.47
2022-10-18T00:29:03.598Z,60588.31
2022-10-18T00:31:36.667Z,60567.59
2022-10-18T00:34:07.187Z,60569.69
2022-10-18T00:36:34.553Z,60646.31
2022-10-18T00:39:02.220Z,60613.16
2022-10-18T00:41:31.855Z,60613.16
2022-10-18T00:44:00.900Z,60613.16
2022-10-18T00:46:35.939Z,60586.25
2022-10-18T00:49:27.338Z,60561.41
2022-10-18T00:51:57.951Z,60567.59
2022-10-18T00:54:24.837Z,60522.03
2022-10-18T00:56:51.326Z,60573.81
2022-10-18T00:59:18.835Z,60559.31
2022-10-18T01:01:45.645Z,60548.97
2022-10-18T01:04:13.962Z,60555.19
2022-10-18T01:07:19.197Z,60569.69
2022-10-18T01:10:13.460Z,60594.53
2022-10-18T01:12:58.708Z,60561.41
2022-10-18T01:15:31.564Z,60580.03
2022-10-18T01:18:13.180Z,60495.13
2022-10-18T01:21:01.481Z,60499.25
2022-10-18T01:23:46.623Z,60544.81
2022-10-18T01:26:16.024Z,60584.19
2022-10-18T01:29:12.046Z,60731.22
2022-10-18T01:31:46.838Z,60461.97
2022-10-18T01:34:15.750Z,60540.69
2022-10-18T01:36:52.365Z,60530.31
2022-10-18T01:39:22.523Z,60542.75
2022-10-18T01:41:50.881Z,60505.47
2022-10-18T01:44:25.717Z,60565.53
2022-10-18T01:46:53.307Z,60544.81
2022-10-18T01:49:19.713Z,60470.25
2022-10-18T01:51:46.284Z,60515.81
2022-10-18T01:54:21.970Z,60501.34
2022-10-18T01:57:01.949Z,60540.69
2022-10-18T01:59:45.203Z,60565.53
2022-10-18T02:02:47.109Z,60542.75
2022-10-18T02:05:22.647Z,60534.47
2022-10-18T02:08:05.624Z,60548.97
2022-10-18T02:10:44.960Z,60611.09
2022-10-18T02:13:11.588Z,60551.03
2022-10-18T02:15:39.871Z,60497.19
2022-10-18T02:18:14.728Z,60503.41
2022-10-18T02:20:41.283Z,60482.69
2022-10-18T02:23:08.895Z,60677.38
2022-10-18T02:25:35.658Z,60590.38
2022-10-18T02:28:03.248Z,60453.69
2022-10-18T02:30:37.588Z,60472.34
2022-10-18T02:33:22.548Z,60493.03
2022-10-18T02:35:52.633Z,60476.47
2022-10-18T02:38:19.618Z,60488.91
2022-10-18T02:40:45.990Z,60466.13
2022-10-18T02:43:13.970Z,60445.41
2022-10-18T02:45:40.381Z,60459.91
2022-10-18T02:48:07.208Z,60404.00
2022-10-18T02:50:33.636Z,60379.13
2022-10-18T02:53:00.046Z,60356.34
2022-10-18T02:55:26.459Z,60383.28
2022-10-18T02:57:52.886Z,60416.41
2022-10-18T03:00:19.325Z,60377.06
2022-10-18T03:02:45.927Z,60404.00
2022-10-18T03:05:12.496Z,60424.69
2022-10-18T03:07:38.870Z,60495.13
2022-10-18T03:10:05.734Z,60368.78
2022-10-18T03:12:32.134Z,60445.41
2022-10-18T03:14:58.539Z,60424.69
2022-10-18T03:17:24.966Z,60640.09
2022-10-18T03:19:51.368Z,60432.97
2022-10-18T03:22:17.859Z,60399.84
2022-10-18T03:24:45.460Z,60484.75
2022-10-18T03:27:11.946Z,60406.06
2022-10-18T03:29:38.369Z,60468.19
2022-10-18T03:32:04.859Z,60470.25
2022-10-18T03:34:31.256Z,60457.84
2022-10-18T03:37:00.896Z,60439.19
2022-10-18T03:39:29.854Z,60451.63
2022-10-18T03:41:56.433Z,60457.84
2022-10-18T03:44:22.803Z,60515.81
2022-10-18T03:46:49.162Z,60447.47
2022-10-18T03:49:15.718Z,60466.13
2022-10-18T03:51:42.087Z,60519.97
2022-10-18T03:54:08.516Z,60546.91
2022-10-18T03:56:34.973Z,60517.91
2022-10-18T03:59:02.632Z,60493.03
2022-10-18T04:01:29.115Z,60495.13
2022-10-18T04:03:55.572Z,60872.06
2022-10-18T04:06:21.971Z,60538.63
2022-10-18T04:08:48.359Z,60571.75
2022-10-18T04:11:15.024Z,60515.81
2022-10-18T04:13:41.474Z,60540.69
2022-10-18T04:16:07.873Z,60470.25
2022-10-18T04:18:34.271Z,60474.41
2022-10-18T04:21:00.655Z,60420.56
2022-10-18T04:23:27.177Z,60542.75
2022-10-18T04:25:53.617Z,60497.19
2022-10-18T04:28:20.018Z,60505.47
2022-10-18T04:30:53.133Z,60490.97
2022-10-18T04:33:20.162Z,60544.81
2022-10-18T04:35:46.770Z,60542.75
2022-10-18T04:38:14.269Z,60509.63
2022-10-18T04:40:40.722Z,60536.53
2022-10-18T04:43:07.165Z,60486.84
2022-10-18T04:45:33.566Z,60577.97
2022-10-18T04:48:00.046Z,60501.34
2022-10-18T04:50:26.578Z,60538.63
2022-10-18T04:52:53.457Z,60575.88
2022-10-18T04:55:20.503Z,60577.97
2022-10-18T04:57:46.892Z,60838.94
2022-10-18T05:00:13.766Z,60648.38
2022-10-18T05:02:40.239Z,60553.09
2022-10-18T05:05:09.240Z,60638.03
2022-10-18T05:07:38.150Z,60559.31
2022-10-18T05:10:05.189Z,60635.94
2022-10-18T05:12:31.801Z,60559.31
2022-10-18T05:14:58.382Z,60698.09
2022-10-18T05:17:25.009Z,60577.97
2022-10-18T05:19:51.374Z,60640.09
2022-10-18T05:22:17.735Z,60577.97
2022-10-18T05:24:44.229Z,60565.53
2022-10-18T05:27:11.082Z,60623.53
2022-10-18T05:29:37.455Z,60664.94
2022-10-18T05:32:04.239Z,60606.97
2022-10-18T05:34:31.858Z,60592.47
2022-10-18T05:36:58.546Z,60635.94
2022-10-18T05:39:24.993Z,60561.41
2022-10-18T05:41:51.383Z,60561.41
2022-10-18T05:44:17.873Z,60561.41
2022-10-18T05:46:44.314Z,60532.41
2022-10-18T05:49:12.134Z,60584.19
2022-10-18T05:51:38.669Z,60567.59
2022-10-18T05:54:05.314Z,60515.81
2022-10-18T05:56:31.738Z,60573.81
2022-10-18T05:58:58.168Z,60546.91
2022-10-18T06:01:24.612Z,60517.91
2022-10-18T06:03:51.201Z,60493.03
2022-10-18T06:06:17.611Z,60652.53
2022-10-18T06:08:44.212Z,60604.88
2022-10-18T06:11:15.602Z,60544.81
2022-10-18T06:13:46.113Z,60559.31
2022-10-18T06:16:13.618Z,60536.53
2022-10-18T06:18:40.561Z,60580.03
2022-10-18T06:21:07.963Z,60567.59
2022-10-18T06:23:34.995Z,60575.88
2022-10-18T06:26:06.619Z,60532.41
2022-10-18T06:28:35.408Z,60569.69
2022-10-18T06:31:02.025Z,60505.47
2022-10-18T06:33:30.737Z,60544.81
2022-10-18T06:36:02.437Z,60590.38
2022-10-18T06:38:29.635Z,60623.53
2022-10-18T06:40:56.995Z,60557.25
2022-10-18T06:43:24.374Z,60590.38
2022-10-18T06:45:51.399Z,60540.69
2022-10-18T06:50:59.126Z,60544.81
2022-10-18T06:53:26.505Z,60563.47
2022-10-18T06:55:58.387Z,60536.53
2022-10-18T06:58:24.847Z,60623.53
2022-10-18T07:00:51.272Z,60534.47
2022-10-18T07:03:17.750Z,60617.31
2022-10-18T07:05:44.163Z,60613.16
2022-10-18T07:08:10.789Z,60606.97
2022-10-18T07:10:39.427Z,60625.59
2022-10-18T07:13:31.096Z,60662.88
2022-10-18T07:16:02.358Z,60708.44
2022-10-18T07:18:28.790Z,60971.50
2022-10-18T07:20:55.173Z,60687.72
2022-10-18T07:23:23.694Z,60737.44
2022-10-18T07:25:50.567Z,60669.09
2022-10-18T07:28:17.417Z,60733.31
2022-10-18T07:30:43.849Z,61044.00
2022-10-18T07:33:10.247Z,60756.09
2022-10-18T07:35:36.631Z,60704.31
2022-10-18T07:38:04.590Z,60745.72
2022-10-18T07:40:31.414Z,60693.94
2022-10-18T07:42:59.822Z,60741.59
2022-10-18T07:45:29.177Z,60799.59
2022-10-18T07:47:56.667Z,60772.66
2022-10-18T07:50:23.520Z,60787.16
2022-10-18T07:52:49.889Z,60700.16
2022-10-18T07:55:16.485Z,60739.50
2022-10-18T07:57:43.075Z,61085.41
2022-10-18T08:00:11.460Z,60737.44
2022-10-18T08:02:37.942Z,60768.50
2022-10-18T08:05:04.479Z,60756.09
2022-10-18T08:07:33.136Z,60712.59
2022-10-18T08:09:59.723Z,60696.03
2022-10-18T08:12:26.133Z,60658.75
2022-10-18T08:14:52.520Z,60698.09
2022-10-18T08:17:18.921Z,60710.50
2022-10-18T08:19:52.957Z,60791.28
2022-10-18T08:22:31.690Z,60751.94
2022-10-18T08:24:58.053Z,60704.31
2022-10-18T08:27:26.258Z,61033.63
2022-10-18T08:29:53.293Z,60936.28
2022-10-18T08:32:19.904Z,60867.94
2022-10-18T08:34:47.110Z,60948.72
2022-10-18T08:37:13.488Z,60946.63
2022-10-18T08:39:39.853Z,60915.56
2022-10-18T08:42:34.485Z,60934.22
2022-10-18T08:45:08.268Z,60967.34
2022-10-18T08:47:49.005Z,61004.63
2022-10-18T08:50:18.678Z,60942.50
2022-10-18T08:52:59.343Z,61033.63
2022-10-18T08:55:44.696Z,60888.66
2022-10-18T08:58:26.657Z,60867.94
2022-10-18T09:01:12.431Z,60888.66
2022-10-18T09:04:01.440Z,60838.94
2022-10-18T09:06:32.419Z,60938.34
2022-10-18T09:09:17.474Z,60965.28
2022-10-18T09:12:09.692Z,60996.34
2022-10-18T09:14:45.176Z,60925.94
2022-10-18T09:17:16.083Z,60913.50
2022-10-18T09:20:04.125Z,60830.66
2022-10-18T09:22:52.333Z,60867.94
2022-10-18T09:25:28.139Z,60768.50
2022-10-18T09:28:28.154Z,60716.72
2022-10-18T09:31:08.382Z,60762.28
2022-10-18T09:33:46.869Z,60901.06
2022-10-18T09:36:23.052Z,60909.34
2022-10-18T09:38:58.583Z,60967.34
2022-10-18T09:41:29.449Z,60923.84
2022-10-18T09:44:00.555Z,60979.78
2022-10-18T09:46:31.431Z,61037.78
2022-10-18T09:49:12.964Z,61070.91
2022-10-18T09:51:44.296Z,61124.78
2022-10-18T09:54:40.452Z,61197.28
2022-10-18T09:57:11.326Z,61340.22
2022-10-18T09:59:38.834Z,61505.94
2022-10-18T10:02:06.007Z,61421.00
2022-10-18T10:04:32.628Z,61524.59
2022-10-18T10:07:00.809Z,61924.44
2022-10-18T10:09:36.375Z,62119.19
2022-10-18T10:12:03.165Z,62384.41
2022-10-18T10:14:30.619Z,62682.78
2022-10-18T10:16:58.659Z,62935.59
2022-10-18T10:19:30.872Z,62278.72
2022-10-18T10:22:12.628Z,62125.41
2022-10-18T10:24:48.919Z,61994.88
2022-10-18T10:27:21.691Z,61700.69
2022-10-18T10:29:48.212Z,61528.72
2022-10-18T10:32:17.081Z,61773.19
2022-10-18T10:34:45.001Z,62011.44
2022-10-18T10:37:26.777Z,62251.78
2022-10-18T10:40:21.874Z,62583.31
2022-10-18T10:43:04.280Z,62740.81
2022-10-18T10:45:59.643Z,62720.09
2022-10-18T10:48:29.922Z,62834.06
2022-10-18T10:51:00.911Z,63033.00
2022-10-18T10:53:39.646Z,63064.09
2022-10-18T10:56:07.158Z,62956.34
2022-10-18T10:58:40.102Z,63238.19
2022-10-18T11:01:22.308Z,63078.59
2022-10-18T11:03:50.922Z,63055.81
2022-10-18T11:06:33.787Z,63109.69
2022-10-18T11:09:02.005Z,62807.13
2022-10-18T11:11:32.487Z,62645.50
2022-10-18T11:14:26.209Z,62581.25
2022-10-18T11:17:11.667Z,62191.69
2022-10-18T11:20:02.005Z,62102.59
2022-10-18T11:22:33.886Z,62417.56
2022-10-18T11:25:03.299Z,62873.44
2022-10-18T11:27:40.446Z,62939.75
2022-10-18T11:30:26.890Z,62935.59
2022-10-18T11:33:13.476Z,63254.75
2022-10-18T11:35:47.319Z,63569.81
2022-10-18T11:38:31.526Z,63600.88
2022-10-18T11:41:13.169Z,63466.16
2022-10-18T11:44:02.216Z,63511.75
2022-10-18T11:46:32.698Z,63459.94
2022-10-18T11:49:36.730Z,63515.91
2022-10-18T11:52:14.062Z,63404.00
2022-10-18T11:55:05.447Z,63321.09
2022-10-18T11:57:53.835Z,62954.25
2022-10-18T12:00:39.514Z,63004.00
2022-10-18T12:03:15.098Z,63111.75
2022-10-18T12:05:43.854Z,63760.50
2022-10-18T12:08:24.940Z,63884.84
2022-10-18T12:11:07.969Z,63822.69
2022-10-18T12:13:46.909Z,63677.59
2022-10-18T12:16:14.171Z,63787.44
2022-10-18T12:18:54.291Z,63801.94
2022-10-18T12:21:25.475Z,63918.03
2022-10-18T12:24:18.772Z,63828.91
2022-10-18T12:26:48.457Z,63876.56
2022-10-18T12:29:32.920Z,63122.13
2022-10-18T12:32:08.518Z,63263.06
2022-10-18T12:34:45.435Z,63497.25
2022-10-18T12:37:30.956Z,63408.13
2022-10-18T12:40:11.087Z,63611.25
2022-10-18T12:42:47.696Z,63443.38
2022-10-18T12:45:33.251Z,63445.44
2022-10-18T12:48:06.080Z,63211.25
2022-10-18T12:50:41.511Z,63157.34
2022-10-18T12:53:19.566Z,63205.03
2022-10-18T12:55:48.751Z,62977.06
2022-10-18T12:58:15.371Z,63209.16
2022-10-18T13:00:41.780Z,63066.16
2022-10-18T13:03:17.836Z,63093.09
2022-10-18T13:05:55.681Z,63059.94
2022-10-18T13:08:34.168Z,63120.06
2022-10-18T13:11:12.459Z,63093.09
2022-10-18T13:14:06.893Z,62979.13
2022-10-18T13:16:38.458Z,62958.41
2022-10-18T13:19:35.460Z,62867.22
2022-10-18T13:22:14.380Z,62894.16
2022-10-18T13:24:46.384Z,63248.53
2022-10-18T13:27:43.239Z,62977.06
2022-10-18T13:30:17.397Z,63408.13
2022-10-18T13:33:01.413Z,62763.59
2022-10-18T13:35:54.857Z,62224.84
2022-10-18T13:38:30.468Z,61994.88
2022-10-18T13:41:02.117Z,62419.63
2022-10-18T13:44:07.370Z,62442.41
2022-10-18T13:46:33.746Z,62570.88
2022-10-18T13:49:17.358Z,62570.88
2022-10-18T13:51:58.856Z,62697.28
2022-10-18T13:54:25.161Z,62699.38
2022-10-18T13:57:02.810Z,62732.53
2022-10-18T13:59:32.333Z,62672.44
2022-10-18T14:02:13.893Z,62773.97
2022-10-18T14:05:25.256Z,62892.09
2022-10-18T14:08:04.738Z,62823.69
2022-10-18T14:11:01.797Z,62819.56
2022-10-18T14:13:42.939Z,62757.38
2022-10-18T14:16:21.363Z,62800.91
2022-10-18T14:18:48.908Z,62896.22
2022-10-18T14:21:30.219Z,62517.00
2022-10-18T14:23:57.676Z,62338.81
2022-10-18T14:26:24.315Z,62222.78
2022-10-18T14:29:07.537Z,61891.28
2022-10-18T14:31:34.596Z,61717.25
2022-10-18T14:34:01.144Z,61663.38
2022-10-18T14:36:31.292Z,61520.44
2022-10-18T14:39:00.319Z,61568.09
2022-10-18T14:41:27.725Z,61601.22
2022-10-18T14:44:20.331Z,61462.44
2022-10-18T14:46:58.769Z,61485.22
2022-10-18T14:49:25.241Z,61505.94
2022-10-18T14:51:53.139Z,61371.28
2022-10-18T14:54:26.105Z,61464.50
2022-10-18T14:56:55.858Z,61547.38
2022-10-18T14:59:25.812Z,61617.81
2022-10-18T15:01:55.384Z,61611.59
2022-10-18T15:04:27.732Z,61822.91
2022-10-18T15:06:55.368Z,62028.03
2022-10-18T15:09:23.277Z,62048.75
2022-10-18T15:11:50.167Z,62148.19
2022-10-18T15:14:18.803Z,62152.34
2022-10-18T15:16:46.663Z,62156.47
2022-10-18T15:19:16.089Z,62278.72
2022-10-18T15:22:30.141Z,62241.44
2022-10-18T15:25:05.823Z,62214.50
2022-10-18T15:27:35.878Z,62251.78
2022-10-18T15:30:16.176Z,62200.00
2022-10-18T15:32:55.066Z,62148.19
2022-10-18T15:35:29.742Z,62063.25
2022-10-18T15:38:00.241Z,62040.44
2022-10-18T15:40:33.493Z,61953.44
2022-10-18T15:43:02.283Z,61986.56
2022-10-18T15:45:35.045Z,61912.00
2022-10-18T15:48:10.585Z,61862.28
2022-10-18T15:50:47.630Z,61729.69
2022-10-18T15:53:20.014Z,61597.09
2022-10-18T15:55:55.472Z,61385.78
2022-10-18T15:58:25.935Z,61211.78
2022-10-18T16:00:54.666Z,61087.50
2022-10-18T16:03:22.215Z,60909.34
2022-10-18T16:05:48.827Z,60758.16
2022-10-18T16:08:28.330Z,60611.09
2022-10-18T16:10:54.737Z,60488.91
2022-10-18T16:13:21.171Z,60327.38
2022-10-18T16:15:47.695Z,60254.88
2022-10-18T16:18:16.914Z,60153.41
2022-10-18T16:20:43.588Z,60029.16
2022-10-18T16:23:15.618Z,60033.28
2022-10-18T16:25:42.062Z,60062.28
2022-10-18T16:28:13.393Z,59892.47
2022-10-18T16:30:40.127Z,59822.06
2022-10-18T16:33:07.442Z,59824.13
2022-10-18T16:35:35.443Z,59720.59
2022-10-18T16:38:02.033Z,59650.19
2022-10-18T16:40:28.602Z,59621.22
2022-10-18T16:42:54.977Z,59586.00
2022-10-18T16:45:21.415Z,59530.09
2022-10-18T16:47:47.835Z,59488.69
2022-10-18T16:50:17.027Z,59434.88
2022-10-18T16:52:43.584Z,59436.94
2022-10-18T16:55:16.352Z,59476.28
2022-10-18T16:57:43.349Z,59432.78
2022-10-18T17:00:20.780Z,59358.25
2022-10-18T17:02:48.335Z,59312.69
2022-10-18T17:05:15.914Z,59306.50
2022-10-18T17:07:42.415Z,59248.53
2022-10-18T17:10:12.242Z,59244.38
2022-10-18T17:12:38.854Z,59223.69
2022-10-18T17:15:05.981Z,59217.47
2022-10-18T17:17:32.606Z,59229.88
2022-10-18T17:19:59.206Z,59157.41
2022-10-18T17:22:25.800Z,59205.03
2022-10-18T17:24:52.606Z,59263.00
2022-10-18T17:27:19.324Z,59231.97
2022-10-18T17:29:45.713Z,59194.69
2022-10-18T17:32:12.142Z,59190.53
2022-10-18T17:34:38.698Z,59118.09
2022-10-18T17:37:05.813Z,59248.53
2022-10-18T17:39:32.541Z,59099.44
2022-10-18T17:41:59.561Z,59087.03
2022-10-18T17:44:26.153Z,59124.28
2022-10-18T17:46:52.876Z,59095.31
2022-10-18T17:49:19.301Z,59068.41
2022-10-18T17:51:46.372Z,59064.25
2022-10-18T17:54:12.981Z,59045.63
2022-10-18T17:56:40.214Z,59033.19
2022-10-18T17:59:06.847Z,59014.56
2022-10-18T18:01:33.742Z,59062.19
2022-10-18T18:04:01.987Z,58985.59
2022-10-18T18:06:36.302Z,58975.22
2022-10-18T18:09:09.182Z,58956.59
2022-10-18T18:11:37.903Z,58923.47
2022-10-18T18:14:08.867Z,58933.81
2022-10-18T18:16:40.603Z,58971.09
2022-10-18T18:19:09.928Z,58900.69
2022-10-18T18:21:37.297Z,58880.00
2022-10-18T18:24:06.521Z,58890.34
2022-10-18T18:26:34.107Z,58929.69
2022-10-18T18:31:37.718Z,58921.41
2022-10-18T18:34:06.634Z,58890.34
2022-10-18T18:36:33.509Z,58919.34
2022-10-18T18:38:59.990Z,58886.22
2022-10-18T18:41:27.740Z,58923.47
2022-10-18T18:44:02.719Z,58923.47
2022-10-18T18:46:32.797Z,58929.69
2022-10-18T18:48:59.340Z,58871.72
2022-10-18T18:51:26.186Z,58888.28
2022-10-18T18:53:52.623Z,58848.94
2022-10-18T18:58:48.401Z,58830.31
2022-10-18T19:01:21.100Z,58815.81
2022-10-18T19:03:49.914Z,58745.44
2022-10-18T19:06:21.858Z,58757.84
2022-10-18T19:08:48.932Z,58735.09
2022-10-18T19:11:17.994Z,58776.50
2022-10-18T19:13:45.232Z,58699.88
2022-10-18T19:16:30.997Z,58735.09
2022-10-18T19:19:12.408Z,58695.75
2022-10-18T19:21:45.856Z,58745.44
2022-10-18T19:24:12.723Z,58672.97
2022-10-18T19:26:53.132Z,58687.47
2022-10-18T19:29:30.501Z,58619.16
2022-10-18T19:31:58.935Z,58619.16
2022-10-18T19:34:26.848Z,58670.91
2022-10-18T19:36:53.630Z,58654.34
2022-10-18T19:39:21.990Z,58656.41
2022-10-18T19:41:50.688Z,58691.59
2022-10-18T19:44:18.265Z,58668.84
2022-10-18T19:46:45.137Z,58666.78
2022-10-18T19:49:11.551Z,58631.56
2022-10-18T19:51:38.443Z,58639.84
2022-10-18T19:54:05.082Z,58648.13
2022-10-18T19:56:31.552Z,58704.03
2022-10-18T19:58:58.666Z,58708.16
2022-10-18T20:01:26.378Z,58685.41
2022-10-18T20:03:53.546Z,58693.69
2022-10-18T20:06:20.504Z,58693.69
2022-10-18T20:08:47.038Z,58689.53
2022-10-18T20:11:19.540Z,58602.59
2022-10-18T20:13:46.305Z,58681.25
2022-10-18T20:16:14.406Z,58681.25
2022-10-18T20:18:43.090Z,58685.41
2022-10-18T20:21:14.284Z,58701.97
2022-10-18T20:23:42.041Z,59120.16
2022-10-18T20:26:18.273Z,58826.16
2022-10-18T20:28:57.165Z,58733.00
2022-10-18T20:31:41.876Z,58712.31
2022-10-18T20:34:10.959Z,58739.22
2022-10-18T20:36:37.537Z,58706.09
2022-10-18T20:39:04.441Z,58695.75
2022-10-18T20:41:33.965Z,58712.31
2022-10-18T20:44:02.682Z,58672.97
2022-10-18T20:46:34.321Z,58672.97
2022-10-18T20:49:01.008Z,58619.16
2022-10-18T20:51:27.835Z,58668.84
2022-10-18T20:53:54.553Z,58666.78
2022-10-18T20:56:23.310Z,58644.00
2022-10-18T20:58:51.256Z,58629.50
2022-10-18T21:01:25.538Z,58581.91
2022-10-18T21:03:53.316Z,58548.78
2022-10-18T21:06:22.145Z,58519.78
2022-10-18T21:08:55.228Z,58445.28
2022-10-18T21:11:21.627Z,58519.78
2022-10-18T21:13:52.276Z,58463.91
2022-10-18T21:16:18.773Z,58443.19
2022-10-18T21:18:45.246Z,58453.56
2022-10-18T21:21:16.712Z,58461.84
2022-10-18T21:23:43.667Z,58443.19
2022-10-18T21:26:36.553Z,58449.41
2022-10-18T21:29:04.743Z,58439.06
2022-10-18T21:31:36.269Z,58420.44
2022-10-18T21:34:05.055Z,58432.84
2022-10-18T21:36:34.070Z,58358.34
2022-10-18T21:39:00.621Z,58374.88
2022-10-18T21:41:27.035Z,58335.56
2022-10-18T21:43:54.534Z,58416.28
2022-10-18T21:46:22.691Z,58424.56
2022-10-18T21:48:50.875Z,58465.97
2022-10-18T21:51:22.642Z,58391.44
2022-10-18T21:53:51.675Z,58426.63
2022-10-18T21:56:20.863Z,58457.69
2022-10-18T21:58:47.941Z,58391.44
2022-10-18T22:01:20.283Z,58453.56
2022-10-18T22:03:49.240Z,58426.63
2022-10-18T22:06:16.633Z,58368.69
2022-10-18T22:08:54.817Z,58362.47
2022-10-18T22:11:28.809Z,58393.53
2022-10-18T22:13:55.273Z,58366.59
2022-10-18T22:16:22.045Z,58310.72
2022-10-18T22:18:49.106Z,58350.06
2022-10-18T22:21:16.701Z,58662.63
2022-10-18T22:23:48.860Z,58354.19
2022-10-18T22:26:18.090Z,58343.84
2022-10-18T22:28:45.159Z,58343.84
2022-10-18T22:31:20.192Z,58385.25
2022-10-18T22:33:47.566Z,58362.47
2022-10-18T22:36:13.960Z,58397.66
2022-10-18T22:38:40.400Z,58389.38
2022-10-18T22:41:08.249Z,58455.63
2022-10-18T22:43:34.911Z,58379.03
2022-10-18T22:46:02.771Z,58341.78
2022-10-18T22:48:29.782Z,58356.25
2022-10-18T22:50:56.440Z,58337.63
2022-10-18T22:53:22.917Z,58360.41
2022-10-18T22:55:49.784Z,58292.09
2022-10-18T22:58:16.617Z,58358.34
2022-10-18T23:00:43.161Z,58343.84
2022-10-18T23:03:09.594Z,58499.09
2022-10-18T23:05:40.244Z,58381.09
2022-10-18T23:08:07.823Z,58335.56
2022-10-18T23:10:34.344Z,58331.41
2022-10-18T23:13:01.016Z,58304.50
2022-10-18T23:15:27.501Z,58273.47
2022-10-18T23:17:54.665Z,58325.22
2022-10-18T23:20:21.532Z,58302.44
2022-10-18T23:22:48.056Z,58211.38
2022-10-18T23:25:14.590Z,58296.22
2022-10-18T23:27:41.214Z,58296.22
2022-10-18T23:30:08.629Z,58279.66
2022-10-18T23:32:35.578Z,58238.28
2022-10-18T23:35:02.211Z,58225.84
2022-10-18T23:37:28.620Z,58196.88
2022-10-18T23:39:55.026Z,58312.78
2022-10-18T23:42:21.408Z,58219.66
2022-10-18T23:44:48.168Z,58225.84
2022-10-18T23:47:15.195Z,58397.66
2022-10-18T23:49:41.779Z,58250.69
2022-10-18T23:52:08.697Z,58172.03
2022-10-18T23:54:35.090Z,58167.91
2022-10-18T23:57:01.608Z,58186.53
2022-10-18T23:59:28.014Z,58203.09
